Terminal Aerodrome Forecast
Issued by NWS Cleveland, OH

Home | Current Version | Previous Version | Text Only | Print | Product List | Glossary Off
Versions: 1 2 3 4 5 6 7 8 9 10 11 12 13 14 15 16 17 18 19 20 21 22 23 24 25

000
FTUS41 KCLE 210500
TAFYNG
TAF
KYNG 210540Z 2106/2206 19009KT P6SM VCSH SCT045 BKN150
      TEMPO 2109/2113 4SM -SHRA BR BKN020
     FM211300 22010KT 6SM -SHRA BR SCT015 OVC030
     FM211600 26011KT P6SM BKN035
     FM212000 29014G20KT P6SM VCSH BKN035=

USA.gov is the U.S. government's official web portal to all federal, state and local government web resources and services.